Flight Track Log - Related Links

Times and Time Zones

All times are in EDT time to prevent confusion due to time zone crossing. See the SKW7426 flight status page for this flight to view local times or setup timezone preferences in your user account.

Time Position Orientation Groundspeed Altitude Reporting Facility
EDT Latitude Longitude Course Direction KTS MPH feet Rate Location/Type
Wed 01:52:49 PM 48.4525 -93.4128 193° South 243 280 6,600  Level Minneapolis Center
Wed 01:53:51 PM 48.3778 -93.4314 189° South 258 297 11,300 3,968 Climbing Minneapolis Center
Wed 01:54:00 PM 48.0162 -93.3736 191° South  Level Estimated
Wed 01:54:53 PM 48.2889 -93.4392 183° South 265 305 14,800  Level Minneapolis Center
Wed 01:55:00 PM 47.9246 -93.3690 190° South  Level Estimated
Wed 01:55:55 PM 48.2089 -93.4469 184° South 277 319 17,300  Level Minneapolis Center
Wed 01:56:00 PM 47.8429 -93.4307 207° Southwest  Level FlightAware Approximate
Wed 01:56:57 PM 48.1253 -93.4556 184° South 293 337 19,100  Level Minneapolis Center
Wed 01:57:00 PM 47.7304 -93.4224 191° South  Level Estimated
Wed 01:57:59 PM 48.0364 -93.4661 185° South 308 354 20,300  Level Minneapolis Center
Wed 01:59:01 PM 47.9417 -93.4764 184° South 324 373 21,700 1,453 Climbing Minneapolis Center
Wed 02:00:07 PM 47.8269 -93.4881 184° South 341 392 23,400 1,266 Climbing Minneapolis Center
Wed 02:01:09 PM 47.7300 -93.4989 184° South 348 400 24,400 919 Climbing Minneapolis Center
Wed 02:02:11 PM 47.6319 -93.5097 184° South 354 407 25,300 823 Climbing Minneapolis Center
Wed 02:03:13 PM 47.5322 -93.5211 184° South 360 414 26,100 774 Climbing Minneapolis Center
Wed 02:04:15 PM 47.4078 -93.5333 184° South 370 426 26,900 726 Climbing Minneapolis Center
Wed 02:05:17 PM 47.3036 -93.5447 184° South 376 433 27,600 532 Climbing Minneapolis Center
Wed 02:06:19 PM 47.2000 -93.5547 184° South 378 435 28,000 194 Climbing Minneapolis Center
Wed 02:07:21 PM 47.0928 -93.5658 184° South 386 444 28,000  Level Minneapolis Center
Wed 02:08:23 PM 46.9669 -93.5794 184° South 383 441 28,000  Level Minneapolis Center
Wed 02:09:26 PM 46.8614 -93.5914 184° South 382 440 28,000 -192 Level Minneapolis Center
Wed 02:10:28 PM 46.7547 -93.6011 184° South 384 442 27,600 -774 Descending Minneapolis Center
Wed 02:11:30 PM 46.6481 -93.6114 184° South 386 444 26,400 -1,306 Descending Minneapolis Center
Wed 02:12:32 PM 46.5408 -93.6189 183° South 390 449 24,900 -1,452 Descending Minneapolis Center
Wed 02:13:34 PM 46.4253 -93.6169 179° South 411 473 23,400 -1,597 Descending Minneapolis Center
Wed 02:14:36 PM 46.2889 -93.6108 178° South 412 474 21,600 -1,597 Descending Minneapolis Center
Wed 02:15:38 PM 46.1761 -93.6069 179° South 397 457 20,100 -1,500 Descending Minneapolis Center
Wed 02:16:40 PM 46.0686 -93.6028 178° South 391 450 18,500 -1,452 Descending Minneapolis Center
Wed 02:17:42 PM 45.9653 -93.5992 179° South 378 435 17,100 -1,210 Descending Minneapolis Center
Wed 02:18:44 PM 45.8631 -93.5967 179° South 371 427 16,000 -532 Descending Minneapolis Center
Wed 02:19:46 PM 45.7647 -93.5911 178° South 357 411 16,000 -48 Level Minneapolis Center
Wed 02:20:48 PM 45.6456 -93.5869 179° South 358 412 15,900 -1,306 Descending Minneapolis Center
Wed 02:21:50 PM 45.5489 -93.5819 178° South 349 402 13,300 -2,371 Descending Minneapolis Center
Wed 02:22:52 PM 45.4569 -93.5397 162° South 348 400 11,000 -1,597 Descending Minneapolis Center
Wed 02:23:54 PM 45.3803 -93.5139 167° South 276 318 10,000 -968 Descending Minneapolis Center
Wed 02:24:56 PM 45.3081 -93.5067 176° South 263 303 9,000 -968 Descending Minneapolis Center
Wed 02:25:58 PM 45.2367 -93.5006 177° South 258 297 8,000 -1,065 Descending Minneapolis Center
Wed 02:27:00 PM 45.1506 -93.4933 177° South 259 298 6,800 -1,306 Descending Minneapolis Center
Wed 02:28:02 PM 45.0881 -93.4575 158° South 245 282 5,300 -1,344 Descending Minneapolis Center
Wed 02:29:05 PM 45.0306 -93.4144 152° Southeast 236 272 4,000 -912 Descending Minneapolis Center
Wed 02:30:07 PM 44.9878 -93.3822 152° Southeast 177 204 3,400 -484 Descending Minneapolis Center
Wed 02:31:09 PM 44.9497 -93.3500 149° Southeast 162 186 3,000 -629 Descending Minneapolis Center
Wed 02:32:11 PM 44.9258 -93.2961 122° Southeast 162 186 2,100 -823 Descending Minneapolis Center
Wed 02:33:13 PM 44.9050 -93.2478 121° Southeast 119 137 1,300 -774 Descending Minneapolis Center

Login

Don't have an account? Register now (free) for customized features, flight alerts, and more!